Caribbean Galaxy — 3EZV4 — position and weather

sailwx.info

Track history (hours):
 
Tides and Currents Weather Stations Pressure Air Temp Water Temp Dewpoint Dewpoint Depression Visibility Wind Speed Wind Dir Waves Ship Positions

Caribbean Galaxy

Last reported at 2017-Apr-19 00:24 UTC. Time now 2017-Apr-23 08:11 UTC.
Position N 01°16' E 104°12'.

Length 246 m; draft 8 m.

Type: Ship. MMSI: 357449000.

Date/timePositionNaut miles runAvg speedWind from/ knotsBaromVisibWave heightAir tempDewpointWater temp
2017-Apr-19 00:24N 01°16' E 104°12'5 9.3
2017-Apr-18 23:53N 01°15' E 104°07'410.0
2017-Apr-18 23:30N 01°15' E 104°03'5 9.4
2017-Apr-18 23:00N 01°14' E 103°58'510.3
2017-Apr-18 22:30N 01°12' E 103°54'510.8
2017-Apr-18 22:00N 01°10' E 103°49'510.2
2017-Apr-18 21:30N 01°07' E 103°45'510.0
2017-Apr-18 21:00N 01°03' E 103°41'5 9.2
2017-Apr-18 20:30N 01°04' E 103°36'611.2
2017-Apr-18 20:00N 01°07' E 103°32'5 9.8
2017-Apr-18 19:30N 01°11' E 103°34'610.7
2017-Apr-18 18:59N 01°11' E 103°39'3 6.7
2017-Apr-18 18:29N 01°11' E 103°43'0 0.3
2017-Apr-18 18:00N 01°10' E 103°43'0 0.1
2017-Apr-18 17:30N 01°11' E 103°43'0 0.0
2017-Apr-18 17:00N 01°11' E 103°43'0 0.1
2017-Apr-18 16:30N 01°11' E 103°42'0 0.0
2017-Apr-18 15:09N 01°11' E 103°42'0 0.0
2017-Apr-18 14:45N 01°11' E 103°42'3 0.5
2017-Apr-18 08:21N 01°13' E 103°40'1 0.1
2017-Apr-17 19:55N 01°14' E 103°40'0 0.0
2017-Apr-17 19:28N 01°14' E 103°40'0 0.0
2017-Apr-17 08:13N 01°14' E 103°40'0 0.0
2017-Apr-17 07:55N 01°14' E 103°40'0 0.0
2017-Apr-17 06:04N 01°14' E 103°40'0 0.0
2017-Apr-17 05:49N 01°14' E 103°40'0 0.0
2017-Apr-17 05:10N 01°14' E 103°40'0 0.0
2017-Apr-17 04:46N 01°14' E 103°40'0 0.0
2017-Apr-17 04:25N 01°14' E 103°40'0 0.0
2017-Apr-17 03:55N 01°14' E 103°40'0 0.0
2017-Apr-17 03:19N 01°14' E 103°40'0 0.0
2017-Apr-17 02:55N 01°14' E 103°40'0 0.0
2017-Apr-17 02:19N 01°14' E 103°40'0 0.0
2017-Apr-17 01:55N 01°14' E 103°40'0 0.0
2017-Apr-17 01:28N 01°14' E 103°40'0 0.0
2017-Apr-17 00:58N 01°14' E 103°40'0 0.0
2017-Apr-17 00:28N 01°14' E 103°40'0 0.0
2017-Apr-16 23:58N 01°14' E 103°40'0 0.0
2017-Apr-16 22:04N 01°14' E 103°40'0 0.0
2017-Apr-16 21:52N 01°14' E 103°40'0 0.0
2017-Apr-16 21:25N 01°14' E 103°40'0 0.0
2017-Apr-16 20:58N 01°14' E 103°40'0 0.0
2017-Apr-16 20:16N 01°14' E 103°40'0 0.0
2017-Apr-16 19:58N 01°14' E 103°40'0 0.0
2017-Apr-16 19:28N 01°14' E 103°40'0 0.0
2017-Apr-16 18:52N 01°14' E 103°40'0 0.0
2017-Apr-16 18:26N 01°14' E 103°40'0 0.6
2017-Apr-16 17:59N 01°14' E 103°40'1 1.5
2017-Apr-16 17:30N 01°13' E 103°40'3 6.4
2017-Apr-16 17:00N 01°11' E 103°42'2 4.6
2017-Apr-16 16:30N 01°09' E 103°44'0 0.3
2017-Apr-16 15:58N 01°09' E 103°44'0 0.2
2017-Apr-16 15:28N 01°09' E 103°44'0 0.1
2017-Apr-16 14:58N 01°09' E 103°44'0 0.1
2017-Apr-16 13:55N 01°09' E 103°44'0 0.1
2017-Apr-16 13:16N 01°09' E 103°44'0 0.2
2017-Apr-16 12:58N 01°09' E 103°44'0 0.2
2017-Apr-16 12:28N 01°09' E 103°44'0 0.1
2017-Apr-16 11:55N 01°09' E 103°44'0 0.2
2017-Apr-16 11:28N 01°10' E 103°44'0 0.3
2017-Apr-16 10:55N 01°10' E 103°44'0 0.2
2017-Apr-16 10:22N 01°09' E 103°44'0 0.2
2017-Apr-16 09:49N 01°10' E 103°44'0 0.2
2017-Apr-16 09:22N 01°10' E 103°44'0 0.1
2017-Apr-16 08:49N 01°10' E 103°44'0 0.4
2017-Apr-16 08:22N 01°09' E 103°44'0 0.2
2017-Apr-16 07:58N 01°09' E 103°44'0 0.1
2017-Apr-16 07:25N 01°09' E 103°44'0 0.0
2017-Apr-16 06:49N 01°09' E 103°44'0 0.0
2017-Apr-16 06:28N 01°09' E 103°44'0 0.0
2017-Apr-16 05:58N 01°09' E 103°44'0 0.0
2017-Apr-16 05:22N 01°09' E 103°44'0 0.0
2017-Apr-16 04:55N 01°09' E 103°44'0 0.0
2017-Apr-16 04:28N 01°09' E 103°44'0 0.0
2017-Apr-16 03:58N 01°09' E 103°44'0 0.1
2017-Apr-16 03:28N 01°09' E 103°44'0 0.1
2017-Apr-16 02:55N 01°09' E 103°44'0 0.0
2017-Apr-16 02:25N 01°09' E 103°44'0 0.0
2017-Apr-16 01:58N 01°09' E 103°44'0 0.0
2017-Apr-16 01:25N 01°09' E 103°44'0 0.0
2017-Apr-16 00:58N 01°09' E 103°44'0 0.0
2017-Apr-16 00:28N 01°09' E 103°44'0 0.0
2017-Apr-15 23:58N 01°09' E 103°44'0 0.0
2017-Apr-15 23:28N 01°09' E 103°44'0 0.0
2017-Apr-15 22:55N 01°09' E 103°44'0 0.0
2017-Apr-15 22:28N 01°09' E 103°44'0 0.0
2017-Apr-15 21:55N 01°09' E 103°44'0 0.0
2017-Apr-15 21:25N 01°09' E 103°44'0 0.0
2017-Apr-15 20:55N 01°09' E 103°44'0 0.0
2017-Apr-15 20:19N 01°09' E 103°44'0 0.0
2017-Apr-15 19:55N 01°09' E 103°44'0 0.0
2017-Apr-15 19:28N 01°09' E 103°44'0 0.0
2017-Apr-15 18:37N 01°09' E 103°44'0 0.0
2017-Apr-15 18:28N 01°09' E 103°44'0 0.1
2017-Apr-15 17:55N 01°09' E 103°44'0 0.2
2017-Apr-15 17:28N 01°09' E 103°44'0 0.3
2017-Apr-15 16:58N 01°09' E 103°44'0 0.2
2017-Apr-15 16:28N 01°09' E 103°44'0 0.3
2017-Apr-15 15:55N 01°09' E 103°44'0 0.1
2017-Apr-15 15:25N 01°09' E 103°44'0 0.6
2017-Apr-15 14:58N 01°10' E 103°44'0 0.4
2017-Apr-15 14:28N 01°09' E 103°44'0 0.2
2017-Apr-15 13:28N 01°09' E 103°44'0 0.1
2017-Apr-15 12:58N 01°09' E 103°44'0 0.3
2017-Apr-15 12:28N 01°10' E 103°44'0 0.3
2017-Apr-15 11:52N 01°09' E 103°44'0 0.1
2017-Apr-15 11:25N 01°09' E 103°44'0 0.2
2017-Apr-15 10:58N 01°09' E 103°44'1 2.1
2017-Apr-15 10:30N 01°10' E 103°43'3 6.1
2017-Apr-15 10:00N 01°11' E 103°40'2 3.0
2017-Apr-15 09:30N 01°10' E 103°41'3 6.2
2017-Apr-15 08:59N 01°08' E 103°44'3 6.0
2017-Apr-15 08:30N 01°09' E 103°46'4 7.3
2017-Apr-15 08:00N 01°11' E 103°49'4 7.3
2017-Apr-15 07:30N 01°13' E 103°53'3 6.9
2017-Apr-15 07:00N 01°14' E 103°56'4 8.2
2017-Apr-15 06:30N 01°16' E 103°60'4 7.5
2017-Apr-15 05:57N 01°16' E 104°04'  
Track history (hours):
 
Tides and Currents Weather Stations Pressure Air Temp Water Temp Dewpoint Dewpoint Depression Visibility Wind Speed Wind Dir Waves Ship Positions

Caribbean Galaxy

Last reported at 2017-Apr-19 00:24 UTC. Time now 2017-Apr-23 08:11 UTC.
Position N 01°16' E 104°12'.

Length 246 m; draft 8 m.

Type: Ship. MMSI: 357449000.

Date/timePositionNaut miles runAvg speedWind from/ knotsBaromVisibWave heightAir tempDewpointWater temp
2017-Apr-19 00:24N 01°16' E 104°12'5 9.3
2017-Apr-18 23:53N 01°15' E 104°07'410.0
2017-Apr-18 23:30N 01°15' E 104°03'5 9.4
2017-Apr-18 23:00N 01°14' E 103°58'510.3
2017-Apr-18 22:30N 01°12' E 103°54'510.8
2017-Apr-18 22:00N 01°10' E 103°49'510.2
2017-Apr-18 21:30N 01°07' E 103°45'510.0
2017-Apr-18 21:00N 01°03' E 103°41'5 9.2
2017-Apr-18 20:30N 01°04' E 103°36'611.2
2017-Apr-18 20:00N 01°07' E 103°32'5 9.8
2017-Apr-18 19:30N 01°11' E 103°34'610.7
2017-Apr-18 18:59N 01°11' E 103°39'3 6.7
2017-Apr-18 18:29N 01°11' E 103°43'0 0.3
2017-Apr-18 18:00N 01°10' E 103°43'0 0.1
2017-Apr-18 17:30N 01°11' E 103°43'0 0.0
2017-Apr-18 17:00N 01°11' E 103°43'0 0.1
2017-Apr-18 16:30N 01°11' E 103°42'0 0.0
2017-Apr-18 15:09N 01°11' E 103°42'0 0.0
2017-Apr-18 14:45N 01°11' E 103°42'3 0.5
2017-Apr-18 08:21N 01°13' E 103°40'1 0.1
2017-Apr-17 19:55N 01°14' E 103°40'0 0.0
2017-Apr-17 19:28N 01°14' E 103°40'0 0.0
2017-Apr-17 08:13N 01°14' E 103°40'0 0.0
2017-Apr-17 07:55N 01°14' E 103°40'0 0.0
2017-Apr-17 06:04N 01°14' E 103°40'0 0.0
2017-Apr-17 05:49N 01°14' E 103°40'0 0.0
2017-Apr-17 05:10N 01°14' E 103°40'0 0.0
2017-Apr-17 04:46N 01°14' E 103°40'0 0.0
2017-Apr-17 04:25N 01°14' E 103°40'0 0.0
2017-Apr-17 03:55N 01°14' E 103°40'0 0.0
2017-Apr-17 03:19N 01°14' E 103°40'0 0.0
2017-Apr-17 02:55N 01°14' E 103°40'0 0.0
2017-Apr-17 02:19N 01°14' E 103°40'0 0.0
2017-Apr-17 01:55N 01°14' E 103°40'0 0.0
2017-Apr-17 01:28N 01°14' E 103°40'0 0.0
2017-Apr-17 00:58N 01°14' E 103°40'0 0.0
2017-Apr-17 00:28N 01°14' E 103°40'0 0.0
2017-Apr-16 23:58N 01°14' E 103°40'0 0.0
2017-Apr-16 22:04N 01°14' E 103°40'0 0.0
2017-Apr-16 21:52N 01°14' E 103°40'0 0.0
2017-Apr-16 21:25N 01°14' E 103°40'0 0.0
2017-Apr-16 20:58N 01°14' E 103°40'0 0.0
2017-Apr-16 20:16N 01°14' E 103°40'0 0.0
2017-Apr-16 19:58N 01°14' E 103°40'0 0.0
2017-Apr-16 19:28N 01°14' E 103°40'0 0.0
2017-Apr-16 18:52N 01°14' E 103°40'0 0.0
2017-Apr-16 18:26N 01°14' E 103°40'0 0.6
2017-Apr-16 17:59N 01°14' E 103°40'1 1.5
2017-Apr-16 17:30N 01°13' E 103°40'3 6.4
2017-Apr-16 17:00N 01°11' E 103°42'2 4.6
2017-Apr-16 16:30N 01°09' E 103°44'0 0.3
2017-Apr-16 15:58N 01°09' E 103°44'0 0.2
2017-Apr-16 15:28N 01°09' E 103°44'0 0.1
2017-Apr-16 14:58N 01°09' E 103°44'0 0.1
2017-Apr-16 13:55N 01°09' E 103°44'0 0.1
2017-Apr-16 13:16N 01°09' E 103°44'0 0.2
2017-Apr-16 12:58N 01°09' E 103°44'0 0.2
2017-Apr-16 12:28N 01°09' E 103°44'0 0.1
2017-Apr-16 11:55N 01°09' E 103°44'0 0.2
2017-Apr-16 11:28N 01°10' E 103°44'0 0.3
2017-Apr-16 10:55N 01°10' E 103°44'0 0.2
2017-Apr-16 10:22N 01°09' E 103°44'0 0.2
2017-Apr-16 09:49N 01°10' E 103°44'0 0.2
2017-Apr-16 09:22N 01°10' E 103°44'0 0.1
2017-Apr-16 08:49N 01°10' E 103°44'0 0.4
2017-Apr-16 08:22N 01°09' E 103°44'0 0.2
2017-Apr-16 07:58N 01°09' E 103°44'0 0.1
2017-Apr-16 07:25N 01°09' E 103°44'0 0.0
2017-Apr-16 06:49N 01°09' E 103°44'0 0.0
2017-Apr-16 06:28N 01°09' E 103°44'0 0.0
2017-Apr-16 05:58N 01°09' E 103°44'0 0.0
2017-Apr-16 05:22N 01°09' E 103°44'0 0.0
2017-Apr-16 04:55N 01°09' E 103°44'0 0.0
2017-Apr-16 04:28N 01°09' E 103°44'0 0.0
2017-Apr-16 03:58N 01°09' E 103°44'0 0.1
2017-Apr-16 03:28N 01°09' E 103°44'0 0.1
2017-Apr-16 02:55N 01°09' E 103°44'0 0.0
2017-Apr-16 02:25N 01°09' E 103°44'0 0.0
2017-Apr-16 01:58N 01°09' E 103°44'0 0.0
2017-Apr-16 01:25N 01°09' E 103°44'0 0.0
2017-Apr-16 00:58N 01°09' E 103°44'0 0.0
2017-Apr-16 00:28N 01°09' E 103°44'0 0.0
2017-Apr-15 23:58N 01°09' E 103°44'0 0.0
2017-Apr-15 23:28N 01°09' E 103°44'0 0.0
2017-Apr-15 22:55N 01°09' E 103°44'0 0.0
2017-Apr-15 22:28N 01°09' E 103°44'0 0.0
2017-Apr-15 21:55N 01°09' E 103°44'0 0.0
2017-Apr-15 21:25N 01°09' E 103°44'0 0.0
2017-Apr-15 20:55N 01°09' E 103°44'0 0.0
2017-Apr-15 20:19N 01°09' E 103°44'0 0.0
2017-Apr-15 19:55N 01°09' E 103°44'0 0.0
2017-Apr-15 19:28N 01°09' E 103°44'0 0.0
2017-Apr-15 18:37N 01°09' E 103°44'0 0.0
2017-Apr-15 18:28N 01°09' E 103°44'0 0.1
2017-Apr-15 17:55N 01°09' E 103°44'0 0.2
2017-Apr-15 17:28N 01°09' E 103°44'0 0.3
2017-Apr-15 16:58N 01°09' E 103°44'0 0.2
2017-Apr-15 16:28N 01°09' E 103°44'0 0.3
2017-Apr-15 15:55N 01°09' E 103°44'0 0.1
2017-Apr-15 15:25N 01°09' E 103°44'0 0.6
2017-Apr-15 14:58N 01°10' E 103°44'0 0.4
2017-Apr-15 14:28N 01°09' E 103°44'0 0.2
2017-Apr-15 13:28N 01°09' E 103°44'0 0.1
2017-Apr-15 12:58N 01°09' E 103°44'0 0.3
2017-Apr-15 12:28N 01°10' E 103°44'0 0.3
2017-Apr-15 11:52N 01°09' E 103°44'0 0.1
2017-Apr-15 11:25N 01°09' E 103°44'0 0.2
2017-Apr-15 10:58N 01°09' E 103°44'1 2.1
2017-Apr-15 10:30N 01°10' E 103°43'3 6.1
2017-Apr-15 10:00N 01°11' E 103°40'2 3.0
2017-Apr-15 09:30N 01°10' E 103°41'3 6.2
2017-Apr-15 08:59N 01°08' E 103°44'3 6.0
2017-Apr-15 08:30N 01°09' E 103°46'4 7.3
2017-Apr-15 08:00N 01°11' E 103°49'4 7.3
2017-Apr-15 07:30N 01°13' E 103°53'3 6.9
2017-Apr-15 07:00N 01°14' E 103°56'4 8.2
2017-Apr-15 06:30N 01°16' E 103°60'4 7.5
2017-Apr-15 05:57N 01°16' E 104°04'  

Dump ship's entire track history